• Join FlightAware (Why Join?)
  • Login
  • US Flag 
12:32AM EDT


 

Airport Tracker/Info


-or-


 

Live Flight TrackerFlight Track Log ✈ KAP16 ✈ 18-Jun-2013 ✈ KSTL - KUIN

Flight Track Log - Related Links

Times and Time Zones

All times are in EDT time to prevent confusion due to time zone crossing. See the KAP16 flight status page for this flight to view local times or setup timezone preferences in your user account.

Time Position Orientation Groundspeed Altitude Reporting Facility
EDT Latitude Longitude Course Direction KTS MPH feet Rate Location/Type
07:12PM 38.7667 -90.3667 332° Northwest 107 123 1,500  Level Gateway (St. Louis) TRACON
07:13PM 38.8000 -90.3833 339° North 118 136 2,400 780 Climbing Gateway (St. Louis) TRACON
07:14PM 38.8358 -90.3828 North 127 146 3,100 720 Climbing Kansas City Center
07:15PM 38.8669 -90.4069 329° Northwest 129 148 3,900 720 Climbing Kansas City Center
07:16PM 38.8994 -90.4311 330° Northwest 133 153 4,700 660 Climbing Kansas City Center
07:17PM 38.9116 -90.4806 332° Northwest  Level Estimated
07:17PM 38.9328 -90.4572 329° Northwest 138 159 5,300  Level Kansas City Center
07:18PM 38.9703 -90.4878 328° Northwest 136 157 6,000 480 Climbing Kansas City Center
07:19PM 38.9989 -90.5117 327° Northwest 128 147 6,400 240 Climbing Kansas City Center
07:20PM 39.0311 -90.5347 331° Northwest 130 150 6,600 120 Climbing Kansas City Center
07:21PM 39.0678 -90.5581 334° Northwest 142 163 6,700  Climbing Kansas City Center
07:22PM 39.1064 -90.5867 330° Northwest 155 178 6,600 -60 Descending Kansas City Center
07:23PM 39.1436 -90.6119 332° Northwest 154 177 6,600  Level Kansas City Center
07:24PM 39.1906 -90.6411 334° Northwest 156 180 6,600  Level Kansas City Center
07:25PM 39.2253 -90.6664 331° Northwest 148 170 6,600  Level Kansas City Center
07:26PM 39.2622 -90.6914 332° Northwest 149 171 6,600 -60 Level Kansas City Center
07:27PM 39.2978 -90.7153 333° Northwest 145 167 6,500  Descending Kansas City Center
07:28PM 39.3339 -90.7422 330° Northwest 148 170 6,600  Climbing Kansas City Center
07:29PM 39.3689 -90.7664 332° Northwest 146 168 6,600  Level Kansas City Center
07:30PM 39.4133 -90.7964 332° Northwest 149 171 6,600  Level Kansas City Center
07:31PM 39.4508 -90.8208 333° Northwest 151 174 6,600  Level Kansas City Center
07:32PM 39.4875 -90.8456 333° Northwest 149 171 6,600 -60 Level Kansas City Center
07:33PM 39.5242 -90.8656 337° Northwest 146 168 6,500  Descending Kansas City Center
07:34PM 39.5619 -90.8878 336° Northwest 147 169 6,600  Climbing Kansas City Center
07:35PM 39.6000 -90.9103 336° Northwest 150 173 6,500 -120 Descending Kansas City Center